Impacts METAR Board
IDs:

KDCA - Washington/National, VA, US

Updated at: 2200 UTC 19 Jun 2018
Potential Impact None Slight Moderate High
Time 19/10Z 19/11Z 19/12Z 19/13Z 19/14Z 19/15Z 19/16Z 19/17Z 19/18Z 19/19Z 19/20Z 19/21Z 19/22Z
Temp79 78 83 89 91 93 92 92 82 79 79 83 80
Dewpt72 73 71 71 71 72 71 73 73 75 75 75 72
Altim29.85 29.86 29.86 29.85 29.84 29.83 29.83 29.82 29.81 29.83 29.85 29.83 29.83
VIS10 10 10 10 10 10 10 10 5 1 10 10 10
CIG160 250 250 -- -- -- 50 80 50 32 26 250 --
CoverBKNOVCBKNSCTSCTSCTBKNBKNBKNOVCBKNBKNFEW
FltCatVFRVFRVFRVFRVFRVFRVFRVFRMVFRIFRMVFRVFRVFR
WX---------------RARA+TSRAVCTSTSVCTS
WDir1801700270300290340310160100360350
WSpd7 7 0 5 12 9 14 10 6 13 0 9 8
WGst-- -- -- -- 20 17 19 -- 22 24 -- -- --
Raw hourly METARs
KDCA 190952Z 18007KT 10SM FEW130 BKN160 BKN250 26/22 A2985 RMK AO2 SLP108 T02610222 $
KDCA 191052Z 17007KT 10SM FEW160 OVC250 26/23 A2986 RMK AO2 SLP110 T02560228 $
KDCA 191152Z 00000KT 10SM SCT160 BKN250 28/22 A2986 RMK AO2 SLP110 T02830217 10283 20256 51007
KDCA 191252Z 27005KT 10SM FEW160 SCT250 32/22 A2985 RMK AO2 SLP108 T03170217
KDCA 191352Z 30012G20KT 10SM FEW140 SCT250 33/22 A2984 RMK AO2 SLP104 T03280217
KDCA 191452Z 29009G17KT 10SM SCT045 SCT140 34/22 A2983 RMK AO2 SLP101 T03390222 58008
KDCA 191552Z 34014G19KT 10SM BKN050 BKN250 33/22 A2983 RMK AO2 SLP103 T03330217
KDCA 191652Z 31010KT 10SM -RA SCT050TCU BKN080 BKN250 33/23 A2982 RMK AO2 RAB48 SLP099 TCU VC N-E P0000 T03330228
KDCA 191752Z 16006G22KT 5SM R01/1800VP6000FT RA SCT025 BKN050TCU BKN090 BKN140 28/23 A2981 RMK AO2 RAE19B39 SLP093 VIS SE 1 TCU OVHD AND E-SE P0021 60021 T02780228 10350 20278 58008 $
KDCA 191858Z 01013G24KT 1SM R01/4000V6000FT +TSRA FEW013 BKN032CB OVC065 26/24 A2983 RMK AO2 TSB58 OCNL LTGIC OHD TS OHD MOV SE P0007 T02610239
KDCA 192002Z 00000KT 10SM VCTS SCT016 BKN026 BKN070 26/24 A2985 RMK AO2 LTG DSNT W-NE RAE00 TSE1956 P0000 T02610239
KDCA 192054Z 36009KT 10SM TS SCT013 SCT018 BKN250 28/24 A2983 RMK AO2 LTG DSNT ALQDS T02830239
KDCA 192156Z 35008KT 10SM VCTS FEW042 27/22 A2983 RMK AO2 LTG DSNT ALQDS TSE55 T02670222



Page loaded:  22:05 UTC  |   03:05 PM Pacific  |   04:05 PM Mountain  |   05:05 PM Central  |   06:05 PM Eastern

 

ADVISORIES

FORECASTS

FORECASTS

OBSERVATIONS

USER TOOLS

ABOUT US